Oxford, Alabama
Current Conditions -  °F | °C
As of 5:53 AM on Thursday 27 Nov 2014 (Local Time) from KANB Reporting Station
Overcast Overcast  
Wind Chill: 36°   Ceiling: 4900
Heat Index: 41°   Visibility: 10mi
Dew Point: 31°   Wind: 8mph
Humidity: 67%   Direction: 280°W
Pressure: 30.26"   Gusts: NA
Location:  33.587°N, 85.8241°W
Report Text: KANB 271153Z AUTO 28007KT 10SM OVC049 05/M01 A3026 RMK AO2 SLP251 T00501006 10089 20017 53020
Loading
Personal Weather Stations






























Interactive Weather Map New forecast layout! Learn more

10-Day Weather Forecast

Advertisements
Track Severe Weather on mobile